Aeroporto :
LOGIN :

Iscrizione | Disclaimer

   EN    FR    IT 

 










Sommario :    VFR   VFR Marginale   IFR   IFR Intensivo   IFR Molto Intensivo
Visibilità : 
Base nubi : 
>= 8 km
>= 3000ft
5 / 8 km
1000 / 3000 ft
1500m / 5 km
500 / 1000 ft
800 / 1500m
200 / 500 ft
< 800m
< 200 ft
Simboli :   Temporali  Nebbia  Neve Forte  Precipitazioni Forti  Vento > 20 kt
SIGMETs :   Varie  Temporali  Ghiacco  Turbolenza  Onda orograficha  Ceneri Vulcaniche







- Altitudine del aeroporto : 200 ft


EBBL - Klein Brogel AB

ULTIMO METAR :
  • 210155Z AUTO 06004KT 9999 NCD 12/00 Q1024 BLU

METARs OBSOLETI :
  • 210125Z AUTO 04005KT 9999 NCD 12/01 Q1024 BLU
  • 210055Z AUTO 04006KT 9999 NCD 13/01 Q1025 BLU
  • 210025Z AUTO 04006KT 9999 NCD 13/02 Q1025 BLU
  • 202355Z AUTO 04005KT 9999 NCD 12/02 Q1025 BLU
  • 202325Z AUTO 05005KT 9999 NCD 13/03 Q1026 BLU

TAF TAF EBBL
Valido dal 20 a 19 ore il 21 a 07 ore UTC


201541Z 2019/2107 06008KT 9999 FEW050
TEMPO 2019/2022 06008G18KT
Nessun NOTAM noto per questo aeroporto.



MetMap, La meteo Aeronautica in un colpo d'occhio ! - Copyright ORBIFLY Dicembre 2007 - Disclaimer

ORBIFLY MET'MAP TEAM :

Programmazione e sviluppo : Alexandra Zaïnal
Concezione e sviluppo : Baudouin d'Aumeries
Co-Programmazione e sviluppo : Marc-Olivier Méhu
Supporto tecnico e logistico : Manuel Goepfert
Aiuto per la traduzione : Arnaldo La Scala

Contatto : metmap@orbifly.com




FONTI E CREDITI :

   NOAA